Etusivu
METAR-TAF:

METAR-TAF

Lentoasemat :

Kōbe, Japani

Leveyspiiri: 34-37-58N, Pituuspiiri: 135-13-26E, korkeus merenpinnasta: 7 m

Tämänhetkinen sää

Tämä raportti tehtiin 42 minuuttia sitten, kello 08.00 UTC
Tuuli 13 kn koillisesta
Lämpötila 16°C
Kosteus 94%
Ilmanpaine 1009 hPa
Näkyvyys: 7000 m
Muutamia pilviä 300 ft:n korkeudessa
Hajanaisia pilviä 1000 ft:n korkeudessa
Hajonneita pilviä 2000 ft:n korkeudessa
heikkoja vesikuuroja,

METAR: RJBE 210800Z 05013KT 7000 -SHRA FEW003 SCT010 BKN020 16/15 Q1009

Aika: 17:42 (08:42 UTC)


TAF: puuttuu

Säähavainnot ja -ennusteet yli 4000 lentoasemalta (METAR- ja TAF-raportit).

Käytössä olevat sääasemat on merkitty karttaan keltaisilla ja punaisilla pisteillä.

Aseta hiiri pisteen päälle nähdäksesi sääaseman nimen.

Klikkaa sitten nähdäksesi säähavainnot ja -ennusteet.

Kartan vaihtaminen: klikkaa mustalla rastilla varustettuja vihreitä pisteitä, niin voit zoomata sisään; viivalla varustettua vihreää pistettä, niin voit zoomata ulos tai vihreitä nuolia, niin pääset viereisille kartoille.


METAR-TAF: